Main page
METAR-TAF:

METAR-TAF

Airports :

Multan International Airport

Multan, Pakistan

latitude: 30-12-12N, longitude: 71-25-09E, elevation: 122 m

Current weather observation

The report was made 12 minutes ago, at 22:00 UTC
Wind 6 kt from the Southeast
Temperature 30°C
Humidity 43%
Pressure 1000 hPa
Visibility: 4000 m
haze

METAR: OPMT 252200Z 13006KT 4000 HZ NSC 30/16 Q1000 NOSIG

Time: 03:12 (22:12 UTC)

Forecast

The report was made 6 hours and 27 minutes ago, at 15:45 UTC
Forecast valid from 25 at 18 UTC to 26 at 12 UTC
Wind 12 kt from the Southeast
Visibility: 3500 m
Few clouds at a height of 12000 ft
haze
Probability 30% :
Temporary
from 26 at 01 UTC to 26 at 04 UTC
Wind 5 kt from the Southwest
Visibility: 2000 m
smoke
From 26 at 0700 UTC
Wind 10 kt from the Southwest
Visibility: 5000 m
haze

TAF: OPMT 251545Z 2518/2612 13012KT 3500 HZ FEW120 TN27/2601Z TX39/2610Z PROB30 TEMPO 2601/2604 23005KT 2000 FU NSC FM260700 23010KT 5000 HZ NSC

Weather observations and forecasts of more than 4000 airports (METAR and TAF reports).

The available stations are represented by yellow and red dots on the map.

Hover mouse over dot to see the name of the station.

Then click to see weather observations and forecasts.

To change the map : click on the green buttons with a black cross to zoom in, on the green button with a dash to zoom out, or on the green arrows for adjacent maps.


METAR-TAF: